Time;durP1;ratioP1;P1;durP2;ratioP2;P2;SDS_P1;SDS_P2;PMS_P1;PMS_P2;Temp;Humidity;BMP_temperature;BMP_pressure;BME280_temperature;BME280_humidity;BME280_pressure;Samples;Min_cycle;Max_cycle;Signal;HPM_P1;HPM_P2
2021/07/25 00:02:07;;;;;;;13.78;11.22;;;;;;;20.56;61.95;99575.93;1726807;83;21033;-40
2021/07/25 00:04:33;;;;;;;16.55;10.88;;;;;;;20.52;62.03;99573.25;1726930;83;21181;-40
2021/07/25 00:07:00;;;;;;;13.08;11.63;;;;;;;20.54;62.17;99570.05;1726621;83;20929;-40
2021/07/25 00:09:28;;;;;;;15.35;11.03;;;;;;;20.56;62.15;99571.20;1726907;83;20993;-40
2021/07/25 00:11:54;;;;;;;14.28;11.50;;;;;;;20.60;62.01;99567.78;1726724;82;20969;-40
2021/07/25 00:14:21;;;;;;;15.65;11.20;;;;;;;20.60;61.99;99572.50;1726905;83;21032;-40
2021/07/25 00:16:48;;;;;;;17.15;11.85;;;;;;;20.59;62.03;99567.59;1726790;83;21131;-40
2021/07/25 00:19:14;;;;;;;15.25;11.70;;;;;;;20.59;61.58;99568.19;1727078;82;20961;-40
2021/07/25 00:21:41;;;;;;;16.95;12.23;;;;;;;20.59;61.87;99569.56;1732752;81;21009;-40
2021/07/25 00:24:08;;;;;;;17.12;11.83;;;;;;;20.58;61.78;99573.52;1757250;81;20933;-40
2021/07/25 00:26:38;;;;;;;18.80;12.28;;;;;;;20.56;62.02;99571.20;1757208;81;21114;-40
2021/07/25 00:29:08;;;;;;;18.02;11.18;;;;;;;20.54;62.10;99571.43;1757486;81;21152;-40
2021/07/25 00:31:34;;;;;;;15.70;11.33;;;;;;;20.51;62.16;99568.16;1757262;81;20918;-40
2021/07/25 00:34:01;;;;;;;14.47;11.10;;;;;;;20.48;62.35;99566.25;1756868;81;21020;-40
2021/07/25 00:36:28;;;;;;;14.15;11.35;;;;;;;20.45;62.37;99565.09;1756668;81;21792;-40
2021/07/25 00:38:54;;;;;;;14.05;11.00;;;;;;;20.47;62.34;99564.69;1756680;81;21656;-40
2021/07/25 00:41:21;;;;;;;16.32;11.83;;;;;;;20.49;62.07;99565.81;1756529;81;21876;-40
2021/07/25 00:43:48;;;;;;;19.55;12.40;;;;;;;20.49;61.99;99567.78;1756673;81;21488;-40
2021/07/25 00:46:18;;;;;;;14.38;12.28;;;;;;;20.49;61.70;99569.16;1756675;81;21664;-40
2021/07/25 00:48:46;;;;;;;14.73;11.80;;;;;;;20.48;61.76;99566.25;1756927;81;20926;-40
2021/07/25 00:51:13;;;;;;;15.72;12.33;;;;;;;20.47;61.92;99568.82;1756856;81;21510;-40
2021/07/25 00:53:43;;;;;;;14.45;11.80;;;;;;;20.46;61.96;99570.02;1756677;81;21487;-40
2021/07/25 00:56:10;;;;;;;16.55;12.80;;;;;;;20.44;62.10;99576.53;1756645;81;20969;-40
2021/07/25 00:58:41;;;;;;;16.10;12.63;;;;;;;20.41;61.99;99570.49;1756868;81;21570;-40
2021/07/25 01:01:10;;;;;;;16.57;12.07;;;;;;;20.39;61.93;99572.28;1756897;81;20990;-40
2021/07/25 01:03:58;;;;;;;16.87;12.90;;;;;;;20.36;61.73;99572.53;1756943;81;21041;-40
2021/07/25 01:06:51;;;;;;;17.05;12.23;;;;;;;20.33;61.51;99567.84;1756712;81;21159;-40
2021/07/25 01:09:33;;;;;;;14.28;11.28;;;;;;;20.28;61.80;99568.30;1756577;81;21028;-40
2021/07/25 01:12:04;;;;;;;17.10;10.98;;;;;;;20.20;61.96;99555.08;1756333;81;20894;-40
2021/07/25 01:14:34;;;;;;;16.25;11.83;;;;;;;20.27;62.00;99571.49;1756628;81;21037;-40
2021/07/25 01:17:34;;;;;;;16.32;12.78;;;;;;;20.27;61.88;99572.27;1756579;81;21072;-40
2021/07/25 01:20:06;;;;;;;20.92;13.43;;;;;;;20.22;61.43;99575.50;1726690;83;21209;-40
2021/07/25 01:22:37;;;;;;;22.90;14.03;;;;;;;20.12;61.47;99578.42;1719272;82;21539;-40
2021/07/25 01:25:05;;;;;;;19.05;13.45;;;;;;;19.99;61.65;99569.99;1713730;83;20990;-40
2021/07/25 01:27:50;;;;;;;15.90;13.15;;;;;;;19.89;61.97;99569.56;1713681;83;21785;-40
2021/07/25 01:30:19;;;;;;;17.15;13.08;;;;;;;19.81;62.30;99573.00;1717075;82;21026;-40
2021/07/25 01:32:46;;;;;;;15.78;12.35;;;;;;;19.70;62.59;99563.37;1743345;82;21188;-40
2021/07/25 01:35:14;;;;;;;17.40;12.93;;;;;;;19.63;62.92;99572.49;1743255;82;20954;-40
2021/07/25 01:37:41;;;;;;;16.35;12.68;;;;;;;19.60;63.02;99569.80;1743293;82;21063;-40
2021/07/25 01:40:16;;;;;;;15.85;12.33;;;;;;;19.61;63.04;99572.12;1743453;82;21029;-40
2021/07/25 01:42:43;;;;;;;15.60;12.30;;;;;;;19.64;63.01;99572.69;1743415;82;21048;-40
2021/07/25 01:45:11;;;;;;;17.23;12.70;;;;;;;19.69;63.01;99568.69;1743274;82;21173;-40
2021/07/25 01:47:38;;;;;;;15.40;12.28;;;;;;;19.73;63.24;99568.81;1743218;82;20997;-40
2021/07/25 01:50:06;;;;;;;14.58;11.75;;;;;;;19.75;63.30;99567.78;1733101;82;21530;-40
2021/07/25 01:52:32;;;;;;;14.10;11.90;;;;;;;19.79;63.22;99578.75;1743425;82;21029;-40
2021/07/25 01:54:59;;;;;;;20.27;12.63;;;;;;;19.80;63.18;99572.81;1743400;82;21651;-40
2021/07/25 01:57:26;;;;;;;13.90;11.33;;;;;;;19.81;63.10;99577.72;1743438;82;21752;-40
2021/07/25 01:59:53;;;;;;;15.25;11.95;;;;;;;19.80;63.08;99574.81;1743041;82;20954;-40
2021/07/25 02:02:19;;;;;;;13.03;10.75;;;;;;;19.79;63.00;99574.63;1743201;82;21020;-40
2021/07/25 02:04:46;;;;;;;14.80;11.12;;;;;;;19.78;62.90;99579.94;1743357;82;20891;-40
2021/07/25 02:07:12;;;;;;;17.15;11.22;;;;;;;19.78;62.76;99582.69;1743484;82;21045;-40
2021/07/25 02:09:39;;;;;;;13.22;11.03;;;;;;;19.76;62.57;99583.69;1743334;82;21074;-40
2021/07/25 02:12:08;;;;;;;13.75;11.48;;;;;;;19.73;62.60;99583.16;1743261;82;21472;-40
2021/07/25 02:14:36;;;;;;;14.85;12.05;;;;;;;19.69;62.62;99583.81;1743751;81;21013;-40
2021/07/25 02:17:04;;;;;;;14.68;12.00;;;;;;;19.66;62.79;99586.78;1743075;82;21582;-40
2021/07/25 02:19:31;;;;;;;16.62;12.25;;;;;;;19.65;62.76;99584.47;1743694;82;21546;-40
2021/07/25 02:21:58;;;;;;;15.95;11.38;;;;;;;19.64;62.77;99591.16;1742926;82;21177;-40
2021/07/25 02:24:25;;;;;;;15.55;12.35;;;;;;;19.63;62.73;99590.37;1743117;82;20938;-40
2021/07/25 02:26:54;;;;;;;15.18;11.10;;;;;;;19.62;62.77;99588.03;1743252;82;20939;-39
2021/07/25 02:29:21;;;;;;;16.65;11.83;;;;;;;19.61;62.70;99588.62;1743756;82;21516;-40
2021/07/25 02:31:48;;;;;;;15.25;10.95;;;;;;;19.64;62.63;99592.53;1743105;82;21048;-39
2021/07/25 02:34:14;;;;;;;15.05;11.28;;;;;;;19.67;62.56;99586.19;1743452;82;21207;-40
2021/07/25 02:36:41;;;;;;;15.78;11.93;;;;;;;19.68;62.57;99593.25;1743157;82;20969;-40
2021/07/25 02:39:07;;;;;;;19.20;12.50;;;;;;;19.69;62.46;99598.94;1743104;81;20926;-40
2021/07/25 02:41:34;;;;;;;14.80;12.35;;;;;;;19.70;62.45;99597.75;1743274;82;21051;-40
2021/07/25 02:44:00;;;;;;;13.15;11.80;;;;;;;19.68;62.67;99599.53;1743232;82;21543;-40
2021/07/25 02:46:27;;;;;;;15.05;12.18;;;;;;;19.66;62.97;99595.63;1743191;82;21820;-40
2021/07/25 02:48:53;;;;;;;14.43;11.73;;;;;;;19.64;63.05;99596.06;1743340;82;21518;-40
2021/07/25 02:51:21;;;;;;;16.75;11.83;;;;;;;19.62;63.20;99592.94;1743308;82;21630;-40
2021/07/25 02:53:48;;;;;;;16.55;11.48;;;;;;;19.09;63.38;99515.28;1743075;82;20927;-40
2021/07/25 02:56:14;;;;;;;14.80;11.33;;;;;;;19.64;63.45;99603.53;1743288;81;21029;-40
2021/07/25 02:58:43;;;;;;;14.73;10.95;;;;;;;19.70;63.39;99604.63;1743292;82;21547;-40
2021/07/25 03:01:14;;;;;;;18.60;12.73;;;;;;;19.74;63.36;99603.39;1743203;82;21519;-40
2021/07/25 03:03:41;;;;;;;18.57;12.68;;;;;;;19.76;63.38;99605.70;1743572;81;21024;-40
2021/07/25 03:06:08;;;;;;;16.82;12.18;;;;;;;19.77;63.35;99605.89;1743174;81;21092;-40
2021/07/25 03:08:35;;;;;;;12.73;11.35;;;;;;;19.77;63.32;99604.52;1743535;81;21033;-40
2021/07/25 03:11:10;;;;;;;17.90;11.93;;;;;;;19.76;63.35;99611.98;1743147;81;20985;-40
2021/07/25 03:13:37;;;;;;;15.75;11.80;;;;;;;19.77;63.51;99607.27;1743276;82;21005;-40
2021/07/25 03:16:08;;;;;;;16.30;12.90;;;;;;;19.77;63.57;99608.64;1743392;81;21528;-40
2021/07/25 03:18:35;;;;;;;18.95;13.38;;;;;;;19.77;63.38;99612.77;1743469;82;21026;-40
2021/07/25 03:21:03;;;;;;;17.00;12.88;;;;;;;19.78;63.26;99611.58;1743156;81;20990;-40
2021/07/25 03:23:30;;;;;;;17.52;14.03;;;;;;;19.81;63.09;99612.11;1743305;82;21053;-40
2021/07/25 03:25:56;;;;;;;17.85;13.53;;;;;;;19.56;62.85;99582.20;1743083;82;21014;-40
2021/07/25 03:28:23;;;;;;;21.23;14.35;;;;;;;19.80;62.81;99621.59;1743100;82;21512;-40
2021/07/25 03:30:50;;;;;;;19.20;13.60;;;;;;;19.79;62.83;99618.64;1743168;82;21089;-40
2021/07/25 03:33:18;;;;;;;19.05;14.23;;;;;;;19.79;62.83;99621.39;1743153;82;21017;-40
2021/07/25 03:35:46;;;;;;;17.82;14.30;;;;;;;19.82;62.92;99626.05;1743185;82;21190;-40
2021/07/25 03:38:15;;;;;;;22.02;14.30;;;;;;;19.85;62.90;99625.22;1743100;82;21064;-40
2021/07/25 03:40:43;;;;;;;16.23;13.55;;;;;;;19.85;63.07;99626.00;1743347;82;20957;-40
2021/07/25 03:43:11;;;;;;;17.67;14.70;;;;;;;19.85;63.20;99625.22;1743285;82;20991;-40
2021/07/25 03:45:44;;;;;;;;;;;;;;;19.81;63.22;99621.74;1745710;81;20914;-40
2021/07/25 03:48:11;;;;;;;16.20;12.88;;;;;;;19.84;63.50;99627.81;1743217;82;21129;-39
2021/07/25 03:50:40;;;;;;;15.50;12.82;;;;;;;19.88;63.67;99633.44;1743079;82;20922;-40
2021/07/25 03:53:08;;;;;;;18.92;13.15;;;;;;;20.01;63.62;99636.98;1733246;82;20969;-40
2021/07/25 03:55:35;;;;;;;15.85;13.32;;;;;;;20.09;63.59;99641.20;1743305;82;21009;-40
2021/07/25 03:58:03;;;;;;;19.12;13.65;;;;;;;20.16;63.25;99641.86;1743315;82;21585;-40
2021/07/25 04:00:29;;;;;;;16.37;13.15;;;;;;;20.24;63.21;99639.17;1743212;82;21189;-40
2021/07/25 04:02:56;;;;;;;13.80;12.30;;;;;;;20.30;62.59;99645.80;1743318;82;20934;-40
2021/07/25 04:05:24;;;;;;;18.98;13.20;;;;;;;20.31;62.71;99640.48;1743106;82;21586;-40
2021/07/25 04:07:50;;;;;;;14.55;12.82;;;;;;;20.34;62.83;99633.34;1742974;82;21041;-40
2021/07/25 04:10:17;;;;;;;15.23;11.95;;;;;;;20.38;63.11;99643.72;1743370;82;21033;-40
2021/07/25 04:12:43;;;;;;;14.75;11.43;;;;;;;20.41;63.33;99637.37;1743471;81;21548;-40
2021/07/25 04:15:12;;;;;;;15.40;11.63;;;;;;;20.44;63.51;99645.38;1743261;82;21004;-40
2021/07/25 04:17:38;;;;;;;17.40;11.60;;;;;;;20.52;63.74;99641.33;1743500;81;21016;-40
2021/07/25 04:20:08;;;;;;;19.05;11.97;;;;;;;20.60;64.07;99644.13;1743197;82;20930;-40
2021/07/25 04:22:37;;;;;;;14.75;11.75;;;;;;;20.67;64.22;99638.51;1745188;81;21273;-40
2021/07/25 04:25:05;;;;;;;15.50;11.78;;;;;;;20.75;64.14;99644.06;1756663;81;21112;-40
2021/07/25 04:27:32;;;;;;;16.00;11.78;;;;;;;20.83;64.00;99649.02;1756709;81;21885;-40
2021/07/25 04:30:00;;;;;;;18.17;12.63;;;;;;;20.91;64.05;99647.52;1756589;81;21427;-40
2021/07/25 04:32:28;;;;;;;14.07;10.75;;;;;;;20.91;63.96;99644.77;1726764;83;21076;-40
2021/07/25 04:34:55;;;;;;;15.28;11.18;;;;;;;20.98;63.78;99647.38;1726505;83;21538;-40
2021/07/25 04:37:27;;;;;;;12.47;10.55;;;;;;;21.08;63.43;99647.17;1726704;82;21112;-40
2021/07/25 04:39:54;;;;;;;15.68;12.00;;;;;;;21.17;62.98;99638.37;1726494;82;21488;-40
2021/07/25 04:42:23;;;;;;;15.48;11.25;;;;;;;21.25;62.65;99646.07;1726610;82;21542;-40
2021/07/25 04:45:01;;;;;;;14.35;11.70;;;;;;;21.37;62.63;99640.53;1726465;83;21534;-40
2021/07/25 04:47:42;;;;;;;16.32;12.00;;;;;;;21.48;62.31;99649.97;1726503;82;21033;-40
2021/07/25 04:50:14;;;;;;;15.18;12.45;;;;;;;21.60;62.03;99650.69;1725794;83;21162;-40
2021/07/25 04:52:42;;;;;;;18.10;12.80;;;;;;;21.71;61.50;99649.86;1726636;83;21562;-40
2021/07/25 04:55:13;;;;;;;18.02;13.08;;;;;;;21.77;60.60;99654.28;1726645;83;20945;-40
2021/07/25 04:57:43;;;;;;;15.45;12.93;;;;;;;21.84;60.40;99652.13;1726800;82;21503;-40
2021/07/25 05:00:15;;;;;;;17.20;12.90;;;;;;;21.91;60.30;99656.13;1726623;83;21534;-40
2021/07/25 05:02:43;;;;;;;17.80;13.95;;;;;;;21.96;59.52;99652.88;1726659;82;21782;-40
2021/07/25 05:05:13;;;;;;;14.93;13.30;;;;;;;22.00;59.86;99652.80;1726491;83;21029;-40
2021/07/25 05:07:41;;;;;;;16.73;12.37;;;;;;;22.04;59.72;99656.25;1727008;82;20937;-40
2021/07/25 05:10:09;;;;;;;16.67;13.03;;;;;;;22.08;58.96;99660.48;1726638;82;21096;-40
2021/07/25 05:13:01;;;;;;;14.05;12.58;;;;;;;22.16;58.52;99654.80;1726473;83;20929;-40
2021/07/25 05:15:32;;;;;;;;;;;;;;;22.24;59.03;99660.32;1731509;82;21143;-40
2021/07/25 05:18:07;;;;;;;17.75;13.15;;;;;;;22.34;58.55;99660.67;1726696;83;20732;-40
2021/07/25 05:20:53;;;;;;;15.18;12.82;;;;;;;22.33;58.54;99661.28;1725848;82;21020;-40
2021/07/25 05:23:43;;;;;;;16.87;12.65;;;;;;;22.45;59.05;99652.91;1722429;82;21765;-40
2021/07/25 05:26:11;;;;;;;13.83;11.93;;;;;;;22.59;58.28;99652.55;1713915;83;21038;-40
2021/07/25 05:28:38;;;;;;;15.43;11.45;;;;;;;22.74;57.75;99651.62;1713950;83;21638;-40
2021/07/25 05:31:07;;;;;;;13.80;11.70;;;;;;;22.88;56.50;99662.30;1727039;82;20975;-40
2021/07/25 05:33:33;;;;;;;12.25;10.72;;;;;;;22.96;56.83;99665.81;1743517;82;21032;-40
2021/07/25 05:36:00;;;;;;;12.37;10.60;;;;;;;23.06;57.36;99667.34;1743323;82;20930;-40
2021/07/25 05:38:27;;;;;;;12.70;10.48;;;;;;;23.14;56.99;99670.86;1743323;81;21069;-40
2021/07/25 05:40:53;;;;;;;13.00;11.45;;;;;;;23.24;56.71;99670.39;1743321;82;21788;-40
2021/07/25 05:43:20;;;;;;;11.93;10.43;;;;;;;23.36;56.32;99668.29;1743221;82;20923;-40
2021/07/25 05:45:47;;;;;;;13.55;11.12;;;;;;;23.48;56.01;99670.97;1737055;82;20993;-40
2021/07/25 05:48:13;;;;;;;15.60;11.08;;;;;;;23.61;55.63;99667.00;1743569;82;21061;-40
2021/07/25 05:50:40;;;;;;;16.52;10.72;;;;;;;23.72;55.51;99667.45;1743451;82;21009;-40
2021/07/25 05:53:06;;;;;;;14.58;10.95;;;;;;;23.85;55.80;99666.70;1743378;82;21136;-40
2021/07/25 05:55:34;;;;;;;12.93;11.05;;;;;;;23.97;55.48;99672.84;1743258;82;21018;-40
2021/07/25 05:58:01;;;;;;;16.25;11.88;;;;;;;24.06;55.62;99665.42;1743661;82;20989;-40
2021/07/25 06:00:27;;;;;;;14.68;11.20;;;;;;;24.15;56.15;99661.41;1743372;82;21006;-40
2021/07/25 06:03:00;;;;;;;13.88;11.48;;;;;;;24.26;55.41;99659.68;1743237;82;21033;-40
2021/07/25 06:05:30;;;;;;;16.87;12.98;;;;;;;24.37;55.46;99657.34;1743265;81;21193;-40
2021/07/25 06:07:58;;;;;;;15.18;13.58;;;;;;;24.45;54.26;99661.43;1742798;81;21091;-40
2021/07/25 06:10:28;;;;;;;14.47;13.00;;;;;;;24.51;54.42;99662.42;1743245;82;21009;-40
2021/07/25 06:13:03;;;;;;;15.80;14.20;;;;;;;24.57;54.58;99662.64;1743600;82;21532;-40
2021/07/25 06:15:31;;;;;;;16.15;14.45;;;;;;;24.64;54.24;99657.62;1743328;82;21066;-40
2021/07/25 06:18:03;;;;;;;16.23;13.10;;;;;;;24.69;53.46;99662.59;1743260;82;20981;-40
2021/07/25 06:20:30;;;;;;;11.48;8.83;;;;;;;24.76;53.12;99658.04;1743238;82;21507;-40
2021/07/25 06:22:58;;;;;;;10.85;9.75;;;;;;;24.83;49.47;99663.36;1707355;83;20921;-41
2021/07/25 06:25:27;;;;;;;14.63;10.35;;;;;;;24.90;48.95;99665.90;1714937;83;21342;-40
2021/07/25 06:27:56;;;;;;;13.25;10.78;;;;;;;24.95;48.53;99665.33;1751216;82;21045;-41
2021/07/25 06:30:24;;;;;;;12.53;11.33;;;;;;;25.00;47.97;99666.14;1751201;82;21139;-40
2021/07/25 06:32:59;;;;;;;13.03;11.22;;;;;;;25.07;48.65;99668.67;1750822;82;21081;-40
2021/07/25 06:35:35;;;;;;;15.08;12.25;;;;;;;25.15;48.24;99667.80;1742900;81;21067;-40
2021/07/25 06:38:08;;;;;;;11.83;10.55;;;;;;;25.22;48.40;99668.34;1742278;81;21013;-40
2021/07/25 06:40:36;;;;;;;11.93;10.63;;;;;;;25.29;46.98;99679.17;1742917;82;21598;-40
2021/07/25 06:43:04;;;;;;;13.15;11.68;;;;;;;25.34;46.11;99677.20;1742853;82;21103;-40
2021/07/25 06:45:31;;;;;;;14.13;10.25;;;;;;;25.39;46.23;99684.95;1742873;82;21073;-41
2021/07/25 06:47:58;;;;;;;13.85;10.38;;;;;;;25.42;45.64;99687.42;1742991;82;21780;-41
2021/07/25 06:50:28;;;;;;;11.95;10.35;;;;;;;25.47;44.82;99687.61;1742678;82;21001;-41
2021/07/25 06:52:56;;;;;;;10.58;9.48;;;;;;;25.55;45.50;99690.17;1742738;82;21092;-40
2021/07/25 06:55:27;;;;;;;13.78;12.47;;;;;;;25.60;43.86;99690.37;1744823;82;21793;-40
2021/07/25 06:57:54;;;;;;;13.22;11.78;;;;;;;25.66;45.69;99691.31;1750906;82;21001;-40
2021/07/25 07:00:20;;;;;;;13.93;11.38;;;;;;;25.72;46.37;99694.28;1750882;82;21001;-40
2021/07/25 07:02:55;;;;;;;12.45;10.90;;;;;;;25.78;46.60;99695.25;1751491;81;20994;-40
2021/07/25 07:05:26;;;;;;;15.43;11.90;;;;;;;25.89;45.56;99691.45;1750718;82;21080;-40
2021/07/25 07:07:57;;;;;;;13.98;12.47;;;;;;;25.98;45.28;99690.72;1750996;82;21123;-41
2021/07/25 07:10:27;;;;;;;14.63;13.03;;;;;;;26.09;46.03;99690.47;1750605;81;21569;-40
2021/07/25 07:12:54;;;;;;;16.25;12.40;;;;;;;26.14;46.02;99684.30;1749890;81;21077;-40
2021/07/25 07:15:23;;;;;;;15.28;13.48;;;;;;;26.23;45.50;99693.33;1751165;82;20976;-40
2021/07/25 07:17:54;;;;;;;15.95;14.35;;;;;;;26.32;47.76;99691.36;1750042;82;21083;-40
2021/07/25 07:20:20;;;;;;;15.23;13.65;;;;;;;26.36;47.78;99686.42;1750723;82;21133;-40
2021/07/25 07:22:59;;;;;;;15.08;13.45;;;;;;;26.41;48.34;99689.83;1753232;81;21810;-40
2021/07/25 07:25:33;;;;;;;14.53;13.00;;;;;;;26.42;48.95;99687.21;1750692;80;21011;-40
2021/07/25 07:28:00;;;;;;;14.30;12.80;;;;;;;26.45;48.09;99689.84;1740909;82;21102;-40
2021/07/25 07:30:27;;;;;;;13.50;12.13;;;;;;;26.48;48.08;99686.13;1741804;81;21100;-40
2021/07/25 07:32:53;;;;;;;14.83;13.30;;;;;;;26.54;46.32;99687.69;1743033;82;21149;-40
2021/07/25 07:35:24;;;;;;;14.90;12.75;;;;;;;26.57;47.52;99693.12;1742758;82;21013;-40
2021/07/25 07:37:51;;;;;;;14.55;11.80;;;;;;;26.60;47.94;99686.64;1739555;82;20962;-41
2021/07/25 07:40:19;;;;;;;12.70;10.80;;;;;;;26.70;48.59;99685.42;1739550;81;21582;-41
2021/07/25 07:42:45;;;;;;;13.45;12.05;;;;;;;26.83;46.59;99686.05;1739242;81;21186;-41
2021/07/25 07:45:15;;;;;;;13.30;11.90;;;;;;;26.94;47.25;99684.85;1743102;82;21223;-40
2021/07/25 07:47:41;;;;;;;13.85;12.37;;;;;;;27.05;46.06;99685.18;1753593;81;21079;-40
2021/07/25 07:50:10;;;;;;;15.58;10.98;;;;;;;27.15;45.98;99681.94;1741647;81;20997;-40
2021/07/25 07:52:37;;;;;;;13.72;12.00;;;;;;;27.20;45.33;99686.11;1742549;82;21521;-40
2021/07/25 07:55:05;;;;;;;14.03;11.80;;;;;;;27.22;45.04;99685.78;1741291;82;21031;-41
2021/07/25 07:57:32;;;;;;;12.65;11.20;;;;;;;27.29;45.23;99683.93;1741140;82;21528;-40
2021/07/25 07:59:58;;;;;;;12.13;10.90;;;;;;;27.42;44.81;99688.09;1736848;82;21668;-40
2021/07/25 08:02:25;;;;;;;12.03;10.82;;;;;;;27.56;44.36;99690.26;1736870;82;21858;-40
2021/07/25 08:04:52;;;;;;;12.33;10.15;;;;;;;27.69;43.65;99685.14;1747229;81;20997;-40
2021/07/25 08:07:19;;;;;;;12.68;10.50;;;;;;;27.78;42.31;99690.69;1745758;81;21038;-41
2021/07/25 08:09:46;;;;;;;11.75;10.32;;;;;;;27.84;42.90;99683.22;1734533;82;21221;-41
2021/07/25 08:12:12;;;;;;;10.82;9.70;;;;;;;27.91;43.44;99687.85;1734752;82;21626;-41
2021/07/25 08:14:39;;;;;;;15.13;9.90;;;;;;;28.03;42.50;99683.33;1734547;82;20966;-40
2021/07/25 08:17:06;;;;;;;10.18;9.05;;;;;;;28.15;42.41;99687.17;1734626;82;21033;-40
2021/07/25 08:19:33;;;;;;;9.05;8.00;;;;;;;28.26;42.51;99687.44;1734788;82;21014;-40
2021/07/25 08:21:59;;;;;;;10.00;8.25;;;;;;;28.37;41.39;99682.87;1734657;82;22169;-41
2021/07/25 08:24:26;;;;;;;10.15;7.95;;;;;;;28.52;41.07;99686.50;1718236;82;21064;-41
2021/07/25 08:26:53;;;;;;;9.23;8.33;;;;;;;28.71;40.82;99687.81;1704860;84;21009;-40
2021/07/25 08:29:20;;;;;;;9.85;8.18;;;;;;;28.85;39.11;99689.26;1713184;82;21539;-41
2021/07/25 08:31:46;;;;;;;9.03;8.13;;;;;;;29.02;39.35;99694.42;1712563;82;21646;-41
2021/07/25 08:34:13;;;;;;;11.18;7.45;;;;;;;29.17;38.57;99698.02;1705289;84;21150;-40
2021/07/25 08:36:43;;;;;;;8.08;7.30;;;;;;;29.25;38.63;99695.00;1705157;83;20981;-41
2021/07/25 08:39:10;;;;;;;11.57;7.60;;;;;;;29.34;38.18;99701.92;1705611;84;21578;-41
2021/07/25 08:41:52;;;;;;;9.40;7.45;;;;;;;29.48;37.62;99696.23;1705616;84;21594;-41
2021/07/25 08:44:45;;;;;;;8.88;7.90;;;;;;;29.59;37.43;99698.58;1705492;84;21006;-40
2021/07/25 08:47:29;;;;;;;8.28;7.35;;;;;;;29.66;36.53;99701.02;1705342;84;21956;-41
2021/07/25 08:49:58;;;;;;;11.60;7.72;;;;;;;29.76;36.30;99703.86;1705396;83;21069;-41
2021/07/25 08:52:30;;;;;;;8.90;6.90;;;;;;;29.87;36.61;99701.84;1705571;84;21029;-40
2021/07/25 08:54:59;;;;;;;9.28;7.35;;;;;;;29.94;33.83;99704.30;1704965;84;21014;-41
2021/07/25 08:57:31;;;;;;;8.55;6.97;;;;;;;29.97;35.11;99696.95;1705784;84;21044;-41
2021/07/25 08:59:58;;;;;;;10.20;7.50;;;;;;;30.10;35.20;99707.23;1705427;84;21111;-41
2021/07/25 09:02:27;;;;;;;9.95;7.83;;;;;;;30.22;35.51;99703.33;1705357;84;21021;-41
2021/07/25 09:04:56;;;;;;;9.85;8.53;;;;;;;30.30;36.44;99700.30;1705441;84;20941;-41
2021/07/25 09:07:25;;;;;;;8.68;7.75;;;;;;;30.27;36.63;99697.68;1705890;84;21622;-41
2021/07/25 09:10:04;;;;;;;;;;;;;;;30.19;37.08;99694.53;1707912;84;20998;-41
2021/07/25 09:12:31;;;;;;;10.72;7.97;;;;;;;30.13;37.20;99690.87;1705226;83;21233;-41
2021/07/25 09:15:08;;;;;;;11.22;7.75;;;;;;;29.95;37.80;99692.49;1705171;84;21736;-41
2021/07/25 09:17:34;;;;;;;9.70;7.92;;;;;;;29.86;37.61;99696.77;1704707;83;21028;-41
2021/07/25 09:20:26;;;;;;;9.60;7.67;;;;;;;29.70;37.83;99695.22;1705312;84;21527;-41
2021/07/25 09:22:58;;;;;;;8.40;7.37;;;;;;;29.58;37.92;99695.64;1705195;84;21070;-41
2021/07/25 09:25:33;;;;;;;9.05;7.75;;;;;;;29.44;37.55;99703.39;1713806;83;21871;-41
2021/07/25 09:28:05;;;;;;;9.13;8.25;;;;;;;29.34;37.62;99695.72;1718933;83;20969;-40
2021/07/25 09:30:33;;;;;;;10.23;7.60;;;;;;;29.33;38.15;99694.81;1719030;82;20973;-41
2021/07/25 09:33:00;;;;;;;8.93;7.65;;;;;;;29.23;37.54;99701.70;1718842;83;20977;-41
2021/07/25 09:35:40;;;;;;;8.10;7.30;;;;;;;29.14;38.49;99701.78;1719012;83;21104;-41
2021/07/25 09:38:09;;;;;;;7.83;6.85;;;;;;;29.08;38.51;99698.10;1717632;83;21193;-41
2021/07/25 09:40:38;;;;;;;11.05;7.40;;;;;;;29.03;37.36;99697.37;1719033;83;21049;-41
2021/07/25 09:43:24;;;;;;;11.45;7.85;;;;;;;28.98;38.30;99699.42;1718890;83;20989;-41
2021/07/25 09:45:54;;;;;;;9.28;7.25;;;;;;;28.97;37.55;99702.05;1716448;83;21032;-41
2021/07/25 09:48:35;;;;;;;7.85;6.80;;;;;;;28.92;38.09;99707.05;1719067;83;21123;-41
2021/07/25 09:51:21;;;;;;;11.30;7.05;;;;;;;28.90;38.19;99709.54;1719007;83;21104;-40
2021/07/25 09:53:53;;;;;;;8.33;7.40;;;;;;;28.87;38.39;99709.72;1718819;83;20977;-41
2021/07/25 09:56:23;;;;;;;8.58;7.25;;;;;;;28.84;37.92;99707.90;1718933;83;21098;-41
2021/07/25 09:58:50;;;;;;;10.20;7.62;;;;;;;28.81;39.12;99710.22;1718899;83;20969;-40
2021/07/25 10:01:40;;;;;;;8.30;7.00;;;;;;;28.73;38.54;99709.82;1718904;83;21040;-41
2021/07/25 10:04:18;;;;;;;7.65;6.55;;;;;;;28.69;38.78;99713.39;1718844;83;21141;-40
2021/07/25 10:06:49;;;;;;;9.67;7.20;;;;;;;28.67;38.16;99714.47;1718999;83;20921;-40
2021/07/25 10:09:18;;;;;;;8.05;7.17;;;;;;;28.59;38.07;99713.29;1719080;83;21527;-40
2021/07/25 10:11:50;;;;;;;;;;;;;;;28.57;38.11;99707.40;1721398;83;20977;-41
2021/07/25 10:14:19;;;;;;;8.15;7.17;;;;;;;28.59;39.38;99713.91;1719025;83;20200;-41
2021/07/25 10:16:52;;;;;;;9.73;7.33;;;;;;;28.62;38.90;99711.55;1718872;83;21072;-41
2021/07/25 10:19:16;;;;;;;7.05;6.33;;;;;;;28.73;38.07;99706.25;1718511;83;21036;-41
2021/07/25 10:21:43;;;;;;;8.58;7.35;;;;;;;28.80;39.55;99708.08;1718878;83;21550;-41
2021/07/25 10:24:12;;;;;;;7.92;7.12;;;;;;;28.91;38.57;99716.67;1718837;83;20961;-41
2021/07/25 10:26:40;;;;;;;8.50;6.35;;;;;;;28.93;38.04;99707.20;1700144;83;21036;-41
2021/07/25 10:29:08;;;;;;;8.63;7.33;;;;;;;28.98;37.91;99707.17;1726336;83;21206;-40
2021/07/25 10:31:34;;;;;;;8.30;7.05;;;;;;;29.05;38.42;99704.00;1726468;81;21656;-41
2021/07/25 10:34:02;;;;;;;9.10;7.67;;;;;;;29.22;38.78;99702.95;1699534;83;21099;-41
2021/07/25 10:36:28;;;;;;;7.80;7.00;;;;;;;29.47;37.81;99699.66;1726264;83;21103;-41
2021/07/25 10:38:55;;;;;;;8.73;6.80;;;;;;;29.80;37.98;99709.24;1726253;83;21546;-41
2021/07/25 10:41:25;;;;;;;9.68;6.90;;;;;;;30.17;37.12;99705.41;1726435;83;21088;-41
2021/07/25 10:43:51;;;;;;;9.30;6.67;;;;;;;30.48;35.54;99711.27;1726397;83;21080;-41
2021/07/25 10:46:23;;;;;;;8.63;6.67;;;;;;;30.77;35.52;99712.41;1726234;83;21032;-41
2021/07/25 10:49:05;;;;;;;7.92;6.53;;;;;;;31.04;33.02;99707.81;1726140;83;20983;-41
2021/07/25 10:51:35;;;;;;;10.35;7.53;;;;;;;31.32;32.44;99710.95;1726319;83;21080;-41
2021/07/25 10:54:25;;;;;;;10.38;6.67;;;;;;;31.71;32.55;99708.57;1726300;83;21082;-41
2021/07/25 10:57:08;;;;;;;8.18;6.62;;;;;;;32.11;32.60;99709.04;1726412;83;21566;-41
2021/07/25 10:59:57;;;;;;;7.00;6.20;;;;;;;32.56;31.37;99696.08;1726310;83;21075;-41
2021/07/25 11:02:33;;;;;;;7.10;6.37;;;;;;;32.64;30.29;99696.52;1726622;83;20992;-41
2021/07/25 11:05:02;;;;;;;9.48;6.30;;;;;;;32.58;30.95;99697.76;1726529;83;21641;-41
2021/07/25 11:07:32;;;;;;;6.60;5.90;;;;;;;32.64;30.44;99688.73;1726969;83;21132;-41
2021/07/25 11:10:02;;;;;;;9.45;6.42;;;;;;;32.86;30.60;99692.30;1753129;81;21621;-41
2021/07/25 11:12:56;;;;;;;7.45;6.30;;;;;;;33.12;30.65;99685.86;1755644;81;20964;-41
2021/07/25 11:15:32;;;;;;;6.85;6.10;;;;;;;33.45;29.34;99692.25;1719716;83;21052;-41
2021/07/25 11:18:01;;;;;;;10.35;6.97;;;;;;;33.84;29.48;99687.43;1719824;83;21118;-41
2021/07/25 11:20:52;;;;;;;7.65;6.50;;;;;;;34.27;29.31;99690.77;1690944;84;21105;-41
2021/07/25 11:23:33;;;;;;;7.90;6.47;;;;;;;34.69;28.95;99693.88;1690846;84;21888;-41
2021/07/25 11:25:57;;;;;;;7.25;5.83;;;;;;;35.03;27.87;99688.87;1690788;84;21316;-41
2021/07/25 11:28:44;;;;;;;7.42;6.65;;;;;;;35.27;27.17;99695.30;1664960;84;20960;-41
2021/07/25 11:31:14;;;;;;;6.95;6.25;;;;;;;35.40;26.33;99682.78;1674098;84;21066;-41
2021/07/25 11:33:47;;;;;;;7.10;6.40;;;;;;;35.34;27.28;99681.30;1657478;86;21140;-41
2021/07/25 11:36:16;;;;;;;7.58;6.40;;;;;;;35.30;28.37;99685.79;1670044;85;21047;-41